sensor_id;sensor_type;location;lat;lon;timestamp;P1;durP1;ratioP1;P2;durP2;ratioP2
2710;SDS011;20721;47.402;8.550;2024-01-07T00:00:21;5.46;;;5.46;;
2710;SDS011;20721;47.402;8.550;2024-01-07T00:02:21;4.80;;;4.80;;
2710;SDS011;20721;47.402;8.550;2024-01-07T00:05:21;4.61;;;4.61;;
2710;SDS011;20721;47.402;8.550;2024-01-07T00:07:21;5.27;;;5.27;;
2710;SDS011;20721;47.402;8.550;2024-01-07T00:10:21;4.59;;;4.59;;
2710;SDS011;20721;47.402;8.550;2024-01-07T00:12:21;4.97;;;4.97;;
2710;SDS011;20721;47.402;8.550;2024-01-07T00:15:21;5.12;;;5.12;;
2710;SDS011;20721;47.402;8.550;2024-01-07T00:17:21;5.16;;;5.16;;
2710;SDS011;20721;47.402;8.550;2024-01-07T00:20:21;4.28;;;4.28;;
2710;SDS011;20721;47.402;8.550;2024-01-07T00:22:21;4.00;;;4.00;;
2710;SDS011;20721;47.402;8.550;2024-01-07T00:24:21;3.78;;;3.78;;
2710;SDS011;20721;47.402;8.550;2024-01-07T00:26:21;3.70;;;3.70;;
2710;SDS011;20721;47.402;8.550;2024-01-07T00:29:21;2.95;;;2.95;;
2710;SDS011;20721;47.402;8.550;2024-01-07T00:31:22;2.86;;;2.86;;
2710;SDS011;20721;47.402;8.550;2024-01-07T00:33:21;2.93;;;2.93;;
2710;SDS011;20721;47.402;8.550;2024-01-07T00:35:21;3.38;;;3.38;;
2710;SDS011;20721;47.402;8.550;2024-01-07T00:37:21;2.70;;;2.70;;
2710;SDS011;20721;47.402;8.550;2024-01-07T00:39:21;2.60;;;2.60;;
2710;SDS011;20721;47.402;8.550;2024-01-07T00:41:22;3.46;;;3.46;;
2710;SDS011;20721;47.402;8.550;2024-01-07T00:43:21;3.42;;;3.42;;
2710;SDS011;20721;47.402;8.550;2024-01-07T00:45:21;3.16;;;3.16;;
2710;SDS011;20721;47.402;8.550;2024-01-07T00:47:21;3.24;;;3.24;;
2710;SDS011;20721;47.402;8.550;2024-01-07T00:49:21;3.64;;;3.64;;
2710;SDS011;20721;47.402;8.550;2024-01-07T00:52:21;3.79;;;3.79;;
2710;SDS011;20721;47.402;8.550;2024-01-07T00:54:21;3.85;;;3.85;;
2710;SDS011;20721;47.402;8.550;2024-01-07T00:57:22;3.39;;;3.39;;
2710;SDS011;20721;47.402;8.550;2024-01-07T00:59:21;3.43;;;3.43;;
2710;SDS011;20721;47.402;8.550;2024-01-07T01:01:21;3.46;;;3.46;;
2710;SDS011;20721;47.402;8.550;2024-01-07T01:03:21;3.72;;;3.72;;
2710;SDS011;20721;47.402;8.550;2024-01-07T01:05:21;3.77;;;3.77;;
2710;SDS011;20721;47.402;8.550;2024-01-07T01:07:21;3.57;;;3.57;;
2710;SDS011;20721;47.402;8.550;2024-01-07T01:10:23;3.64;;;3.64;;
2710;SDS011;20721;47.402;8.550;2024-01-07T01:12:21;3.71;;;3.71;;
2710;SDS011;20721;47.402;8.550;2024-01-07T01:14:21;3.77;;;3.77;;
2710;SDS011;20721;47.402;8.550;2024-01-07T01:16:21;3.83;;;3.83;;
2710;SDS011;20721;47.402;8.550;2024-01-07T01:18:21;4.22;;;4.22;;
2710;SDS011;20721;47.402;8.550;2024-01-07T01:22:21;3.38;;;3.38;;
2710;SDS011;20721;47.402;8.550;2024-01-07T01:24:22;4.11;;;4.11;;
2710;SDS011;20721;47.402;8.550;2024-01-07T01:26:21;4.43;;;4.43;;
2710;SDS011;20721;47.402;8.550;2024-01-07T01:28:21;4.06;;;4.06;;
2710;SDS011;20721;47.402;8.550;2024-01-07T01:30:21;3.77;;;3.77;;
2710;SDS011;20721;47.402;8.550;2024-01-07T01:32:21;4.17;;;4.17;;
2710;SDS011;20721;47.402;8.550;2024-01-07T01:34:22;4.49;;;4.49;;
2710;SDS011;20721;47.402;8.550;2024-01-07T01:36:21;3.83;;;3.83;;
2710;SDS011;20721;47.402;8.550;2024-01-07T01:38:21;4.54;;;4.54;;
2710;SDS011;20721;47.402;8.550;2024-01-07T01:41:21;4.73;;;4.73;;
2710;SDS011;20721;47.402;8.550;2024-01-07T01:43:23;3.97;;;3.97;;
2710;SDS011;20721;47.402;8.550;2024-01-07T01:45:22;4.53;;;4.53;;
2710;SDS011;20721;47.402;8.550;2024-01-07T01:47:21;3.67;;;3.67;;
2710;SDS011;20721;47.402;8.550;2024-01-07T01:49:22;4.24;;;4.24;;
2710;SDS011;20721;47.402;8.550;2024-01-07T01:51:22;4.55;;;4.55;;
2710;SDS011;20721;47.402;8.550;2024-01-07T01:53:22;4.68;;;4.68;;
2710;SDS011;20721;47.402;8.550;2024-01-07T01:55:22;4.23;;;4.23;;
2710;SDS011;20721;47.402;8.550;2024-01-07T01:57:26;4.33;;;4.33;;
2710;SDS011;20721;47.402;8.550;2024-01-07T02:00:22;3.71;;;3.71;;
2710;SDS011;20721;47.402;8.550;2024-01-07T02:03:22;4.59;;;4.59;;
2710;SDS011;20721;47.402;8.550;2024-01-07T02:05:23;4.59;;;4.59;;
2710;SDS011;20721;47.402;8.550;2024-01-07T02:07:22;4.23;;;4.23;;
2710;SDS011;20721;47.402;8.550;2024-01-07T02:09:22;4.05;;;4.05;;
2710;SDS011;20721;47.402;8.550;2024-01-07T02:11:25;4.12;;;4.12;;
2710;SDS011;20721;47.402;8.550;2024-01-07T02:13:22;4.21;;;4.21;;
2710;SDS011;20721;47.402;8.550;2024-01-07T02:16:22;4.54;;;4.54;;
2710;SDS011;20721;47.402;8.550;2024-01-07T02:19:22;4.07;;;4.07;;
2710;SDS011;20721;47.402;8.550;2024-01-07T02:21:23;4.62;;;4.62;;
2710;SDS011;20721;47.402;8.550;2024-01-07T02:23:21;4.63;;;4.63;;
2710;SDS011;20721;47.402;8.550;2024-01-07T02:25:22;4.18;;;4.18;;
2710;SDS011;20721;47.402;8.550;2024-01-07T02:27:21;4.78;;;4.78;;
2710;SDS011;20721;47.402;8.550;2024-01-07T02:29:21;4.15;;;4.15;;
2710;SDS011;20721;47.402;8.550;2024-01-07T02:31:22;4.22;;;4.22;;
2710;SDS011;20721;47.402;8.550;2024-01-07T02:33:22;4.37;;;4.37;;
2710;SDS011;20721;47.402;8.550;2024-01-07T02:35:21;4.51;;;4.51;;
2710;SDS011;20721;47.402;8.550;2024-01-07T02:37:21;4.93;;;4.93;;
2710;SDS011;20721;47.402;8.550;2024-01-07T02:40:22;4.62;;;4.62;;
2710;SDS011;20721;47.402;8.550;2024-01-07T02:42:21;3.99;;;3.99;;
2710;SDS011;20721;47.402;8.550;2024-01-07T02:44:23;4.76;;;4.76;;
2710;SDS011;20721;47.402;8.550;2024-01-07T02:47:21;4.24;;;4.24;;
2710;SDS011;20721;47.402;8.550;2024-01-07T02:49:22;4.58;;;4.58;;
2710;SDS011;20721;47.402;8.550;2024-01-07T02:51:22;4.42;;;4.42;;
2710;SDS011;20721;47.402;8.550;2024-01-07T02:53:22;4.79;;;4.79;;
2710;SDS011;20721;47.402;8.550;2024-01-07T02:55:22;4.78;;;4.78;;
2710;SDS011;20721;47.402;8.550;2024-01-07T02:57:22;4.35;;;4.35;;
2710;SDS011;20721;47.402;8.550;2024-01-07T03:01:22;4.62;;;4.62;;
2710;SDS011;20721;47.402;8.550;2024-01-07T03:03:22;5.45;;;5.45;;
2710;SDS011;20721;47.402;8.550;2024-01-07T03:05:22;4.55;;;4.55;;
2710;SDS011;20721;47.402;8.550;2024-01-07T03:07:22;5.64;;;5.64;;
2710;SDS011;20721;47.402;8.550;2024-01-07T03:10:22;4.91;;;4.91;;
2710;SDS011;20721;47.402;8.550;2024-01-07T03:12:22;5.74;;;5.74;;
2710;SDS011;20721;47.402;8.550;2024-01-07T03:14:22;4.90;;;4.90;;
2710;SDS011;20721;47.402;8.550;2024-01-07T03:16:29;5.36;;;5.36;;
2710;SDS011;20721;47.402;8.550;2024-01-07T03:18:22;5.40;;;5.40;;
2710;SDS011;20721;47.402;8.550;2024-01-07T03:20:22;5.00;;;5.00;;
2710;SDS011;20721;47.402;8.550;2024-01-07T03:22:22;4.74;;;4.74;;
2710;SDS011;20721;47.402;8.550;2024-01-07T03:24:22;5.14;;;5.14;;
2710;SDS011;20721;47.402;8.550;2024-01-07T03:26:22;4.86;;;4.86;;
2710;SDS011;20721;47.402;8.550;2024-01-07T03:28:22;5.01;;;5.01;;
2710;SDS011;20721;47.402;8.550;2024-01-07T03:30:22;5.40;;;5.40;;
2710;SDS011;20721;47.402;8.550;2024-01-07T03:32:22;4.68;;;4.68;;
2710;SDS011;20721;47.402;8.550;2024-01-07T03:35:22;4.71;;;4.71;;
2710;SDS011;20721;47.402;8.550;2024-01-07T03:37:22;4.71;;;4.71;;
2710;SDS011;20721;47.402;8.550;2024-01-07T03:39:22;4.70;;;4.70;;
2710;SDS011;20721;47.402;8.550;2024-01-07T03:41:26;5.13;;;5.13;;
2710;SDS011;20721;47.402;8.550;2024-01-07T03:43:22;5.28;;;5.28;;
2710;SDS011;20721;47.402;8.550;2024-01-07T03:46:22;5.05;;;5.05;;
2710;SDS011;20721;47.402;8.550;2024-01-07T03:48:22;4.72;;;4.72;;
2710;SDS011;20721;47.402;8.550;2024-01-07T03:50:22;4.82;;;4.82;;
2710;SDS011;20721;47.402;8.550;2024-01-07T03:52:22;5.32;;;5.32;;
2710;SDS011;20721;47.402;8.550;2024-01-07T03:55:22;5.00;;;5.00;;
2710;SDS011;20721;47.402;8.550;2024-01-07T03:57:22;4.44;;;4.44;;
2710;SDS011;20721;47.402;8.550;2024-01-07T03:59:22;4.91;;;4.91;;
2710;SDS011;20721;47.402;8.550;2024-01-07T04:01:26;4.56;;;4.56;;
2710;SDS011;20721;47.402;8.550;2024-01-07T04:03:22;4.89;;;4.89;;
2710;SDS011;20721;47.402;8.550;2024-01-07T04:05:22;5.21;;;5.21;;
2710;SDS011;20721;47.402;8.550;2024-01-07T04:07:22;4.58;;;4.58;;
2710;SDS011;20721;47.402;8.550;2024-01-07T04:09:22;4.27;;;4.27;;
2710;SDS011;20721;47.402;8.550;2024-01-07T04:11:22;5.04;;;5.04;;
2710;SDS011;20721;47.402;8.550;2024-01-07T04:13:22;5.32;;;5.32;;
2710;SDS011;20721;47.402;8.550;2024-01-07T04:15:22;5.83;;;5.83;;
2710;SDS011;20721;47.402;8.550;2024-01-07T04:17:23;4.43;;;4.43;;
2710;SDS011;20721;47.402;8.550;2024-01-07T04:19:22;5.01;;;5.01;;
2710;SDS011;20721;47.402;8.550;2024-01-07T04:21:22;4.76;;;4.76;;
2710;SDS011;20721;47.402;8.550;2024-01-07T04:23:22;4.47;;;4.47;;
2710;SDS011;20721;47.402;8.550;2024-01-07T04:25:22;4.83;;;4.83;;
2710;SDS011;20721;47.402;8.550;2024-01-07T04:27:22;4.21;;;4.21;;
2710;SDS011;20721;47.402;8.550;2024-01-07T04:29:22;4.41;;;4.41;;
2710;SDS011;20721;47.402;8.550;2024-01-07T04:33:23;5.09;;;5.09;;
2710;SDS011;20721;47.402;8.550;2024-01-07T04:35:22;4.54;;;4.54;;
2710;SDS011;20721;47.402;8.550;2024-01-07T04:38:22;4.44;;;4.44;;
2710;SDS011;20721;47.402;8.550;2024-01-07T04:42:24;4.63;;;4.63;;
2710;SDS011;20721;47.402;8.550;2024-01-07T04:44:22;4.74;;;4.74;;
2710;SDS011;20721;47.402;8.550;2024-01-07T04:46:22;4.59;;;4.59;;
2710;SDS011;20721;47.402;8.550;2024-01-07T04:48:22;4.13;;;4.13;;
2710;SDS011;20721;47.402;8.550;2024-01-07T04:50:24;4.35;;;4.35;;
2710;SDS011;20721;47.402;8.550;2024-01-07T04:52:22;4.36;;;4.29;;
2710;SDS011;20721;47.402;8.550;2024-01-07T04:54:22;4.37;;;4.37;;
2710;SDS011;20721;47.402;8.550;2024-01-07T04:56:22;4.42;;;4.42;;
2710;SDS011;20721;47.402;8.550;2024-01-07T04:58:22;4.35;;;4.35;;
2710;SDS011;20721;47.402;8.550;2024-01-07T05:00:22;4.46;;;4.46;;
2710;SDS011;20721;47.402;8.550;2024-01-07T05:02:22;4.82;;;4.82;;
2710;SDS011;20721;47.402;8.550;2024-01-07T05:04:23;4.11;;;4.11;;
2710;SDS011;20721;47.402;8.550;2024-01-07T05:06:22;4.50;;;4.50;;
2710;SDS011;20721;47.402;8.550;2024-01-07T05:08:22;4.21;;;4.21;;
2710;SDS011;20721;47.402;8.550;2024-01-07T05:10:22;4.87;;;4.87;;
2710;SDS011;20721;47.402;8.550;2024-01-07T05:12:22;4.68;;;4.68;;
2710;SDS011;20721;47.402;8.550;2024-01-07T05:14:22;4.33;;;4.33;;
2710;SDS011;20721;47.402;8.550;2024-01-07T05:17:22;4.34;;;4.34;;
2710;SDS011;20721;47.402;8.550;2024-01-07T05:19:22;5.51;;;5.51;;
2710;SDS011;20721;47.402;8.550;2024-01-07T05:21:22;4.53;;;4.53;;
2710;SDS011;20721;47.402;8.550;2024-01-07T05:24:22;4.87;;;4.87;;
2710;SDS011;20721;47.402;8.550;2024-01-07T05:27:22;4.43;;;4.43;;
2710;SDS011;20721;47.402;8.550;2024-01-07T05:30:22;4.82;;;4.82;;
2710;SDS011;20721;47.402;8.550;2024-01-07T05:32:22;4.54;;;4.54;;
2710;SDS011;20721;47.402;8.550;2024-01-07T05:34:22;5.23;;;5.23;;
2710;SDS011;20721;47.402;8.550;2024-01-07T05:36:22;5.38;;;5.38;;
2710;SDS011;20721;47.402;8.550;2024-01-07T05:38:22;4.75;;;4.75;;
2710;SDS011;20721;47.402;8.550;2024-01-07T05:40:22;4.96;;;4.96;;
2710;SDS011;20721;47.402;8.550;2024-01-07T05:43:22;4.80;;;4.80;;
2710;SDS011;20721;47.402;8.550;2024-01-07T05:45:22;5.44;;;5.44;;
2710;SDS011;20721;47.402;8.550;2024-01-07T05:47:22;5.27;;;5.27;;
2710;SDS011;20721;47.402;8.550;2024-01-07T05:49:22;5.12;;;5.03;;
2710;SDS011;20721;47.402;8.550;2024-01-07T05:51:23;5.58;;;5.57;;
2710;SDS011;20721;47.402;8.550;2024-01-07T05:53:22;6.45;;;6.20;;
2710;SDS011;20721;47.402;8.550;2024-01-07T05:55:22;6.14;;;5.88;;
2710;SDS011;20721;47.402;8.550;2024-01-07T05:57:22;5.38;;;5.38;;
2710;SDS011;20721;47.402;8.550;2024-01-07T06:01:27;5.65;;;5.65;;
2710;SDS011;20721;47.402;8.550;2024-01-07T06:03:22;5.26;;;5.26;;
2710;SDS011;20721;47.402;8.550;2024-01-07T06:05:22;5.81;;;5.81;;
2710;SDS011;20721;47.402;8.550;2024-01-07T06:07:22;5.72;;;5.72;;
2710;SDS011;20721;47.402;8.550;2024-01-07T06:09:22;6.12;;;6.12;;
2710;SDS011;20721;47.402;8.550;2024-01-07T06:11:29;4.89;;;4.89;;
2710;SDS011;20721;47.402;8.550;2024-01-07T06:13:22;5.71;;;5.71;;
2710;SDS011;20721;47.402;8.550;2024-01-07T06:15:22;5.49;;;5.49;;
2710;SDS011;20721;47.402;8.550;2024-01-07T06:17:22;5.98;;;5.97;;
2710;SDS011;20721;47.402;8.550;2024-01-07T06:19:22;5.90;;;5.90;;
2710;SDS011;20721;47.402;8.550;2024-01-07T06:21:22;6.63;;;6.63;;
2710;SDS011;20721;47.402;8.550;2024-01-07T06:23:22;5.90;;;5.90;;
2710;SDS011;20721;47.402;8.550;2024-01-07T06:25:22;5.87;;;5.87;;
2710;SDS011;20721;47.402;8.550;2024-01-07T06:27:23;5.49;;;5.49;;
2710;SDS011;20721;47.402;8.550;2024-01-07T06:29:22;5.77;;;5.77;;
2710;SDS011;20721;47.402;8.550;2024-01-07T06:31:22;5.92;;;5.92;;
2710;SDS011;20721;47.402;8.550;2024-01-07T06:34:23;5.36;;;5.36;;
2710;SDS011;20721;47.402;8.550;2024-01-07T06:36:22;5.95;;;5.93;;
2710;SDS011;20721;47.402;8.550;2024-01-07T06:38:22;6.22;;;6.04;;
2710;SDS011;20721;47.402;8.550;2024-01-07T06:40:22;5.39;;;5.39;;
2710;SDS011;20721;47.402;8.550;2024-01-07T06:42:22;6.55;;;6.55;;
2710;SDS011;20721;47.402;8.550;2024-01-07T06:44:22;6.17;;;6.17;;
2710;SDS011;20721;47.402;8.550;2024-01-07T06:46:22;5.63;;;5.63;;
2710;SDS011;20721;47.402;8.550;2024-01-07T06:48:22;6.23;;;6.23;;
2710;SDS011;20721;47.402;8.550;2024-01-07T06:50:22;5.92;;;5.76;;
2710;SDS011;20721;47.402;8.550;2024-01-07T06:52:22;5.93;;;5.93;;
2710;SDS011;20721;47.402;8.550;2024-01-07T06:54:25;5.93;;;5.93;;
2710;SDS011;20721;47.402;8.550;2024-01-07T06:56:23;6.47;;;6.47;;
2710;SDS011;20721;47.402;8.550;2024-01-07T06:58:22;5.89;;;5.89;;
2710;SDS011;20721;47.402;8.550;2024-01-07T07:00:22;6.25;;;6.25;;
2710;SDS011;20721;47.402;8.550;2024-01-07T07:02:22;6.46;;;6.46;;
2710;SDS011;20721;47.402;8.550;2024-01-07T07:04:22;6.22;;;6.22;;
2710;SDS011;20721;47.402;8.550;2024-01-07T07:06:22;6.33;;;6.33;;
2710;SDS011;20721;47.402;8.550;2024-01-07T07:09:23;6.18;;;6.17;;
2710;SDS011;20721;47.402;8.550;2024-01-07T07:11:22;6.87;;;6.87;;
2710;SDS011;20721;47.402;8.550;2024-01-07T07:13:22;6.01;;;5.94;;
2710;SDS011;20721;47.402;8.550;2024-01-07T07:15:22;5.84;;;5.84;;
2710;SDS011;20721;47.402;8.550;2024-01-07T07:18:23;6.66;;;6.66;;
2710;SDS011;20721;47.402;8.550;2024-01-07T07:22:22;6.58;;;6.58;;
2710;SDS011;20721;47.402;8.550;2024-01-07T07:24:22;6.50;;;6.50;;
2710;SDS011;20721;47.402;8.550;2024-01-07T07:26:22;7.68;;;7.48;;
2710;SDS011;20721;47.402;8.550;2024-01-07T07:28:22;6.95;;;6.95;;
2710;SDS011;20721;47.402;8.550;2024-01-07T07:30:22;7.08;;;6.92;;
2710;SDS011;20721;47.402;8.550;2024-01-07T07:32:22;6.16;;;6.16;;
2710;SDS011;20721;47.402;8.550;2024-01-07T07:35:22;6.34;;;6.34;;
2710;SDS011;20721;47.402;8.550;2024-01-07T07:39:24;7.05;;;7.05;;
2710;SDS011;20721;47.402;8.550;2024-01-07T07:41:22;7.50;;;7.50;;
2710;SDS011;20721;47.402;8.550;2024-01-07T07:43:22;6.64;;;6.56;;
2710;SDS011;20721;47.402;8.550;2024-01-07T07:45:22;7.03;;;7.03;;
2710;SDS011;20721;47.402;8.550;2024-01-07T07:47:22;6.71;;;6.70;;
2710;SDS011;20721;47.402;8.550;2024-01-07T07:49:23;6.77;;;6.70;;
2710;SDS011;20721;47.402;8.550;2024-01-07T07:51:22;7.62;;;7.56;;
2710;SDS011;20721;47.402;8.550;2024-01-07T07:53:22;7.48;;;7.39;;
2710;SDS011;20721;47.402;8.550;2024-01-07T07:56:22;7.47;;;7.41;;
2710;SDS011;20721;47.402;8.550;2024-01-07T07:58:22;7.94;;;7.75;;
2710;SDS011;20721;47.402;8.550;2024-01-07T08:00:25;7.82;;;7.82;;
2710;SDS011;20721;47.402;8.550;2024-01-07T08:02:22;7.30;;;7.25;;
2710;SDS011;20721;47.402;8.550;2024-01-07T08:04:22;6.98;;;6.98;;
2710;SDS011;20721;47.402;8.550;2024-01-07T08:07:22;6.68;;;6.68;;
2710;SDS011;20721;47.402;8.550;2024-01-07T08:09:22;6.57;;;6.54;;
2710;SDS011;20721;47.402;8.550;2024-01-07T08:13:23;7.35;;;7.35;;
2710;SDS011;20721;47.402;8.550;2024-01-07T08:15:23;5.80;;;5.80;;
2710;SDS011;20721;47.402;8.550;2024-01-07T08:17:22;7.47;;;7.47;;
2710;SDS011;20721;47.402;8.550;2024-01-07T08:19:22;6.71;;;6.71;;
2710;SDS011;20721;47.402;8.550;2024-01-07T08:21:22;7.74;;;7.74;;
2710;SDS011;20721;47.402;8.550;2024-01-07T08:23:23;6.69;;;6.69;;
2710;SDS011;20721;47.402;8.550;2024-01-07T08:31:22;6.97;;;6.85;;
2710;SDS011;20721;47.402;8.550;2024-01-07T08:33:23;6.84;;;6.69;;
2710;SDS011;20721;47.402;8.550;2024-01-07T08:36:22;8.10;;;7.82;;
2710;SDS011;20721;47.402;8.550;2024-01-07T08:38:22;6.58;;;6.57;;
2710;SDS011;20721;47.402;8.550;2024-01-07T08:41:25;7.52;;;7.52;;
2710;SDS011;20721;47.402;8.550;2024-01-07T08:43:23;6.84;;;6.84;;
2710;SDS011;20721;47.402;8.550;2024-01-07T08:45:22;7.03;;;7.03;;
2710;SDS011;20721;47.402;8.550;2024-01-07T08:47:23;6.55;;;6.49;;
2710;SDS011;20721;47.402;8.550;2024-01-07T08:49:23;6.40;;;6.33;;
2710;SDS011;20721;47.402;8.550;2024-01-07T08:51:23;6.60;;;6.55;;
2710;SDS011;20721;47.402;8.550;2024-01-07T08:53:22;6.57;;;6.57;;
2710;SDS011;20721;47.402;8.550;2024-01-07T08:55:23;6.82;;;6.69;;
2710;SDS011;20721;47.402;8.550;2024-01-07T08:57:22;6.63;;;6.44;;
2710;SDS011;20721;47.402;8.550;2024-01-07T08:59:22;6.59;;;6.59;;
2710;SDS011;20721;47.402;8.550;2024-01-07T09:01:24;6.14;;;6.14;;
2710;SDS011;20721;47.402;8.550;2024-01-07T09:03:22;7.24;;;7.24;;
2710;SDS011;20721;47.402;8.550;2024-01-07T09:05:23;6.89;;;6.69;;
2710;SDS011;20721;47.402;8.550;2024-01-07T09:07:23;7.11;;;7.10;;
2710;SDS011;20721;47.402;8.550;2024-01-07T09:09:23;6.78;;;6.71;;
2710;SDS011;20721;47.402;8.550;2024-01-07T09:11:23;7.21;;;7.05;;
2710;SDS011;20721;47.402;8.550;2024-01-07T09:13:23;6.14;;;5.99;;
2710;SDS011;20721;47.402;8.550;2024-01-07T09:15:23;7.40;;;7.20;;
2710;SDS011;20721;47.402;8.550;2024-01-07T09:17:22;6.79;;;6.79;;
2710;SDS011;20721;47.402;8.550;2024-01-07T09:19:25;7.88;;;7.83;;
2710;SDS011;20721;47.402;8.550;2024-01-07T09:21:22;7.52;;;7.30;;
2710;SDS011;20721;47.402;8.550;2024-01-07T09:23:22;6.49;;;6.30;;
2710;SDS011;20721;47.402;8.550;2024-01-07T09:25:23;7.45;;;7.15;;
2710;SDS011;20721;47.402;8.550;2024-01-07T09:27:22;6.78;;;6.77;;
2710;SDS011;20721;47.402;8.550;2024-01-07T09:29:23;7.00;;;6.99;;
2710;SDS011;20721;47.402;8.550;2024-01-07T09:31:23;6.91;;;6.77;;
2710;SDS011;20721;47.402;8.550;2024-01-07T09:34:23;6.90;;;6.85;;
2710;SDS011;20721;47.402;8.550;2024-01-07T09:36:33;6.89;;;6.87;;
2710;SDS011;20721;47.402;8.550;2024-01-07T09:38:25;6.06;;;5.86;;
2710;SDS011;20721;47.402;8.550;2024-01-07T09:40:26;7.27;;;7.02;;
2710;SDS011;20721;47.402;8.550;2024-01-07T09:42:24;6.57;;;6.57;;
2710;SDS011;20721;47.402;8.550;2024-01-07T09:44:23;6.97;;;6.95;;
2710;SDS011;20721;47.402;8.550;2024-01-07T09:46:23;7.01;;;6.89;;
2710;SDS011;20721;47.402;8.550;2024-01-07T09:48:23;7.34;;;7.22;;
2710;SDS011;20721;47.402;8.550;2024-01-07T09:50:23;6.93;;;6.84;;
2710;SDS011;20721;47.402;8.550;2024-01-07T09:52:23;7.23;;;7.22;;
2710;SDS011;20721;47.402;8.550;2024-01-07T09:54:27;6.58;;;6.42;;
2710;SDS011;20721;47.402;8.550;2024-01-07T09:56:36;6.81;;;6.81;;
2710;SDS011;20721;47.402;8.550;2024-01-07T09:59:23;6.53;;;6.53;;
2710;SDS011;20721;47.402;8.550;2024-01-07T10:01:23;7.14;;;7.14;;
2710;SDS011;20721;47.402;8.550;2024-01-07T10:03:24;6.02;;;6.02;;
2710;SDS011;20721;47.402;8.550;2024-01-07T10:06:23;6.32;;;6.24;;
2710;SDS011;20721;47.402;8.550;2024-01-07T10:08:23;6.42;;;6.23;;
2710;SDS011;20721;47.402;8.550;2024-01-07T10:10:23;5.99;;;5.98;;
2710;SDS011;20721;47.402;8.550;2024-01-07T10:12:24;5.92;;;5.92;;
2710;SDS011;20721;47.402;8.550;2024-01-07T10:14:23;5.92;;;5.92;;
2710;SDS011;20721;47.402;8.550;2024-01-07T10:16:24;6.32;;;6.31;;
2710;SDS011;20721;47.402;8.550;2024-01-07T10:18:24;6.51;;;6.51;;
2710;SDS011;20721;47.402;8.550;2024-01-07T10:20:23;6.03;;;6.03;;
2710;SDS011;20721;47.402;8.550;2024-01-07T10:22:23;5.91;;;5.91;;
2710;SDS011;20721;47.402;8.550;2024-01-07T10:24:23;6.09;;;5.98;;
2710;SDS011;20721;47.402;8.550;2024-01-07T10:26:33;6.29;;;6.29;;
2710;SDS011;20721;47.402;8.550;2024-01-07T10:29:23;6.29;;;6.29;;
2710;SDS011;20721;47.402;8.550;2024-01-07T10:31:24;6.76;;;6.73;;
2710;SDS011;20721;47.402;8.550;2024-01-07T10:33:23;6.43;;;6.43;;
2710;SDS011;20721;47.402;8.550;2024-01-07T10:35:29;6.36;;;6.36;;
2710;SDS011;20721;47.402;8.550;2024-01-07T10:38:23;6.10;;;6.10;;
2710;SDS011;20721;47.402;8.550;2024-01-07T10:40:23;6.85;;;6.85;;
2710;SDS011;20721;47.402;8.550;2024-01-07T10:42:23;6.60;;;6.60;;
2710;SDS011;20721;47.402;8.550;2024-01-07T10:44:25;6.55;;;6.55;;
2710;SDS011;20721;47.402;8.550;2024-01-07T10:46:24;6.62;;;6.62;;
2710;SDS011;20721;47.402;8.550;2024-01-07T10:48:27;5.74;;;5.74;;
2710;SDS011;20721;47.402;8.550;2024-01-07T10:50:24;6.07;;;6.07;;
2710;SDS011;20721;47.402;8.550;2024-01-07T10:53:27;6.72;;;6.66;;
2710;SDS011;20721;47.402;8.550;2024-01-07T10:55:25;6.45;;;6.44;;
2710;SDS011;20721;47.402;8.550;2024-01-07T10:59:23;6.50;;;6.50;;
2710;SDS011;20721;47.402;8.550;2024-01-07T11:01:23;6.69;;;6.69;;
2710;SDS011;20721;47.402;8.550;2024-01-07T11:04:26;6.37;;;6.37;;
2710;SDS011;20721;47.402;8.550;2024-01-07T11:06:28;6.06;;;6.06;;
2710;SDS011;20721;47.402;8.550;2024-01-07T11:10:31;5.79;;;5.79;;
2710;SDS011;20721;47.402;8.550;2024-01-07T11:12:23;5.97;;;5.97;;
2710;SDS011;20721;47.402;8.550;2024-01-07T11:14:53;5.41;;;5.41;;
2710;SDS011;20721;47.402;8.550;2024-01-07T11:16:50;5.18;;;5.18;;
2710;SDS011;20721;47.402;8.550;2024-01-07T11:18:27;6.26;;;6.26;;
2710;SDS011;20721;47.402;8.550;2024-01-07T11:20:31;5.98;;;5.98;;
2710;SDS011;20721;47.402;8.550;2024-01-07T11:22:38;5.74;;;5.74;;
2710;SDS011;20721;47.402;8.550;2024-01-07T11:24:53;5.65;;;5.65;;
2710;SDS011;20721;47.402;8.550;2024-01-07T11:26:23;5.35;;;5.35;;
2710;SDS011;20721;47.402;8.550;2024-01-07T11:28:53;6.53;;;6.53;;
2710;SDS011;20721;47.402;8.550;2024-01-07T11:30:31;6.61;;;6.61;;
2710;SDS011;20721;47.402;8.550;2024-01-07T11:32:29;5.36;;;5.36;;
2710;SDS011;20721;47.402;8.550;2024-01-07T11:34:54;5.92;;;5.92;;
2710;SDS011;20721;47.402;8.550;2024-01-07T11:36:25;5.40;;;5.40;;
2710;SDS011;20721;47.402;8.550;2024-01-07T11:38:23;6.07;;;6.07;;
2710;SDS011;20721;47.402;8.550;2024-01-07T11:40:23;5.69;;;5.69;;
2710;SDS011;20721;47.402;8.550;2024-01-07T11:42:23;5.74;;;5.74;;
2710;SDS011;20721;47.402;8.550;2024-01-07T11:44:24;5.29;;;5.29;;
2710;SDS011;20721;47.402;8.550;2024-01-07T11:47:23;5.56;;;5.56;;
2710;SDS011;20721;47.402;8.550;2024-01-07T11:49:25;5.79;;;5.79;;
2710;SDS011;20721;47.402;8.550;2024-01-07T11:52:23;5.66;;;5.66;;
2710;SDS011;20721;47.402;8.550;2024-01-07T11:54:23;5.02;;;5.02;;
2710;SDS011;20721;47.402;8.550;2024-01-07T11:56:24;5.84;;;5.84;;
2710;SDS011;20721;47.402;8.550;2024-01-07T11:58:23;5.59;;;5.59;;
2710;SDS011;20721;47.402;8.550;2024-01-07T12:00:23;5.96;;;5.96;;
2710;SDS011;20721;47.402;8.550;2024-01-07T12:02:24;5.31;;;5.30;;
2710;SDS011;20721;47.402;8.550;2024-01-07T12:05:25;6.61;;;6.42;;
2710;SDS011;20721;47.402;8.550;2024-01-07T12:07:24;6.26;;;6.26;;
2710;SDS011;20721;47.402;8.550;2024-01-07T12:09:25;5.75;;;5.75;;
2710;SDS011;20721;47.402;8.550;2024-01-07T12:11:23;5.98;;;5.98;;
2710;SDS011;20721;47.402;8.550;2024-01-07T12:13:24;6.08;;;6.08;;
2710;SDS011;20721;47.402;8.550;2024-01-07T12:15:23;6.20;;;6.20;;
2710;SDS011;20721;47.402;8.550;2024-01-07T12:17:26;5.95;;;5.95;;
2710;SDS011;20721;47.402;8.550;2024-01-07T12:20:25;6.17;;;6.17;;
2710;SDS011;20721;47.402;8.550;2024-01-07T12:22:23;6.12;;;6.12;;
2710;SDS011;20721;47.402;8.550;2024-01-07T12:24:24;6.76;;;6.76;;
2710;SDS011;20721;47.402;8.550;2024-01-07T12:26:27;6.41;;;6.41;;
2710;SDS011;20721;47.402;8.550;2024-01-07T12:29:23;6.63;;;6.63;;
2710;SDS011;20721;47.402;8.550;2024-01-07T12:31:24;6.07;;;6.07;;
2710;SDS011;20721;47.402;8.550;2024-01-07T12:33:27;5.88;;;5.88;;
2710;SDS011;20721;47.402;8.550;2024-01-07T12:35:25;6.18;;;6.18;;
2710;SDS011;20721;47.402;8.550;2024-01-07T12:37:25;5.94;;;5.94;;
2710;SDS011;20721;47.402;8.550;2024-01-07T12:39:23;5.37;;;5.37;;
2710;SDS011;20721;47.402;8.550;2024-01-07T12:42:23;7.21;;;7.21;;
2710;SDS011;20721;47.402;8.550;2024-01-07T12:44:26;7.14;;;7.14;;
2710;SDS011;20721;47.402;8.550;2024-01-07T12:47:24;6.29;;;6.29;;
2710;SDS011;20721;47.402;8.550;2024-01-07T12:49:23;6.73;;;6.73;;
2710;SDS011;20721;47.402;8.550;2024-01-07T12:51:23;6.89;;;6.89;;
2710;SDS011;20721;47.402;8.550;2024-01-07T12:53:23;6.70;;;6.70;;
2710;SDS011;20721;47.402;8.550;2024-01-07T12:55:24;6.73;;;6.73;;
2710;SDS011;20721;47.402;8.550;2024-01-07T12:57:23;6.78;;;6.78;;
2710;SDS011;20721;47.402;8.550;2024-01-07T12:59:23;7.14;;;7.14;;
2710;SDS011;20721;47.402;8.550;2024-01-07T13:01:24;6.83;;;6.83;;
2710;SDS011;20721;47.402;8.550;2024-01-07T13:03:27;7.13;;;7.13;;
2710;SDS011;20721;47.402;8.550;2024-01-07T13:05:23;7.24;;;7.24;;
2710;SDS011;20721;47.402;8.550;2024-01-07T13:07:23;9.37;;;9.37;;
2710;SDS011;20721;47.402;8.550;2024-01-07T13:09:23;7.40;;;7.40;;
2710;SDS011;20721;47.402;8.550;2024-01-07T13:12:23;7.93;;;7.93;;
2710;SDS011;20721;47.402;8.550;2024-01-07T13:14:23;7.69;;;7.69;;
2710;SDS011;20721;47.402;8.550;2024-01-07T13:16:23;7.57;;;7.57;;
2710;SDS011;20721;47.402;8.550;2024-01-07T13:18:24;7.28;;;7.28;;
2710;SDS011;20721;47.402;8.550;2024-01-07T13:20:23;7.68;;;7.68;;
2710;SDS011;20721;47.402;8.550;2024-01-07T13:22:24;7.38;;;7.38;;
2710;SDS011;20721;47.402;8.550;2024-01-07T13:24:23;6.94;;;6.94;;
2710;SDS011;20721;47.402;8.550;2024-01-07T13:27:23;6.78;;;6.78;;